Terminal Aerodrome Forecast
Issued by NWS

Home | Current Version | Previous Version | Text Only | Print | Product List | Glossary On
Versions: 1 2 3 4 5 6 7 8 9 10 11 12 13 14 15 16 17 18
000
FTUS43 KLSX 241300 AAA
TAFUIN
TAF AMD
KUIN 241345Z 2414/2512 23005KT 1/4SM FG VV002
     FM241500 20006KT 2SM BR BKN006
     FM241600 20007KT P6SM BKN012
     FM241700 20008KT P6SM SCT250
     FM250400 28006KT 3SM BR SCT250=

USA.gov is the U.S. government's official web portal to all federal, state and local government web resources and services.